Date,TemperatureHighF,TemperatureAvgF,TemperatureLowF,DewpointHighF,DewpointAvgF,DewpointLowF,HumidityHigh,HumidityAvg,HumidityLow,PressureMaxIn,PressureMinIn,WindSpeedMaxMPH,WindSpeedAvgMPH,GustSpeedMaxMPH,PrecipitationSumIn
2013-3-1,37,34,31,27,24,21,73,67,62,30.16,30.08,10,3,10,0.00
2013-3-2,34,31,26,25,21,13,81,67,53,30.24,30.13,11,3,11,0.00
2013-3-3,53,36,17,24,18,9,79,51,29,30.23,30.05,8,1,8,0.00
2013-3-4,69,53,34,45,30,20,60,43,19,30.06,29.75,16,4,16,0.00
2013-3-5,62,50,36,54,36,8,91,62,19,30.18,29.76,19,7,19,0.00
2013-3-6,50,38,30,28,21,18,62,51,40,30.35,30.17,12,3,12,0.00
2013-3-7,62,42,29,33,25,18,72,54,27,30.38,30.26,11,1,11,0.00
2013-3-8,70,50,30,36,26,21,75,45,19,30.38,30.16,10,1,10,0.00
2013-3-9,72,60,48,36,29,23,43,33,19,30.17,29.92,11,4,11,0.00
2013-3-10,66,58,51,55,48,36,96,73,39,29.95,29.75,21,4,21,0.00
2013-3-11,50,41,31,46,31,23,87,69,55,30.03,29.83,11,4,11,0.00
2013-3-12,57,41,26,34,25,20,87,57,25,30.21,30.01,10,2,10,0.00
2013-3-13,52,43,32,30,22,15,64,45,32,30.40,30.21,14,3,14,0.00
2013-3-14,32,30,29,18,17,17,60,57,55,30.39,30.38,1,0,1,0.00
2013-3-15,77,62,46,49,41,31,60,47,34,30.15,29.89,12,4,12,0.00
2013-3-16,77,66,57,52,50,43,72,56,40,29.93,29.81,16,4,16,0.00
2013-3-17,78,64,57,55,50,45,77,62,42,29.90,29.68,8,1,8,0.00
2013-3-18,68,56,43,59,50,39,96,83,69,30.04,29.67,15,3,15,0.00
2013-3-19,64,48,33,43,32,21,96,59,24,30.19,30.02,7,1,7,0.00
2013-3-20,55,45,33,32,20,-1,68,39,19,30.23,30.07,15,3,15,0.00
2013-3-21,53,40,26,25,10,-5,62,32,19,30.11,29.92,8,1,8,0.00
2013-3-22,48,42,34,46,38,24,96,88,64,29.97,29.85,10,3,10,0.00
2013-3-23,58,50,46,54,46,42,92,86,74,29.90,29.66,11,2,11,0.00
2013-3-24,51,45,36,50,38,22,96,79,56,29.97,29.55,21,6,21,0.00
2013-3-25,41,35,32,23,20,17,60,53,45,30.25,29.96,16,7,16,0.00
2013-3-26,49,36,28,27,20,16,69,53,36,30.35,30.23,10,3,10,0.00
2013-3-27,62,42,26,30,23,16,76,51,26,30.41,30.27,10,1,10,0.00
2013-3-28,73,53,34,36,30,23,69,45,21,30.35,30.20,10,1,10,0.00
2013-3-29,63,54,50,51,42,31,86,65,34,30.25,30.15,7,1,7,0.00
2013-3-30,59,54,51,58,52,48,96,92,84,30.18,29.92,7,1,7,0.00
2013-3-31,64,58,51,59,54,47,96,87,71,29.95,29.84,7,1,7,0.00